Sultan Mahmud Badaruddin Ii Airport
WIPP : now visible

Airfield :











YOU CAN JOIN US ON...

 
LOGIN :

Register | Disclaimer

   EN    FR    IT 

 









Legend :    VFR   Marginal VFR   IFR   Intensive IFR   Very Intensive IFR
Visi :
Ceiling :
>= 8 km
>= 3000ft
5 to 8 km
1000 to 3000 ft
1500m to 5 km
500 to 1000 ft
800 to 1500m
200 to 500 ft
< 800m
< 200 ft
Symbols :   Thunderstorms  Fog  Heavy snow  Heavy precipitations  Wind > 20 kt






- Airport Elevation : 49 ft
- IATA code : PLM


WIPP - Sultan Mahmud Badaruddin Ii

CURRENT METAR :
  • 210300Z 35008KT 9999 BKN010 30/25 Q1014

EXPIRED METARs :
  • 210230Z 33010KT 9999 BKN010 29/25 Q1014

TAF TAF WIPP
Valid from the 21 at 00:00 until the 22 at 00:00 UTC


202300Z 2100/2124 32007KT 9999 SCT010
TEMPO 2108/2112 3000 RA FEW010CB BKN010
TEMPO 2120/2124 1500 BR FEW010



MET'MAP, your aeronautical weather chart ! - Copyright ORBIFLY December 2007 - Disclaimer

ORBIFLY MET'MAP TEAM :

Programming & Development : Alexandra Zaïnal
Concept & original design : Baudouin d'Aumeries
Assistance for programming : Marc-Olivier Méhu
Technical & hardware support : Manuel Goepfert

Contact : metmap@orbifly.com




SOURCES & CREDITS :

   NOAA       Earth
Advisory